Time;durP1;ratioP1;P1;durP2;ratioP2;P2;SDS_P1;SDS_P2;PMS_P1;PMS_P2;Temp;Humidity;BMP_temperature;BMP_pressure;BME280_temperature;BME280_humidity;BME280_pressure;Samples;Min_cycle;Max_cycle;Signal;HPM_P1;HPM_P2
2023/03/20 00:01:22;;;;;;;2.58;1.08;;;7.50;99.90;;;;;;5084427;28;20182;-90
2023/03/20 00:07:09;;;;;;;2.67;1.08;;;8.30;99.90;;;;;;5071622;28;20100;-89
2023/03/20 00:10:03;;;;;;;;;;;;;;;;;;;;;
2023/03/20 00:13:06;;;;;;;;;;;;;;;;;;;;;
2023/03/20 00:15:47;;;;;;;4.00;1.83;;;7.40;99.90;;;;;;5044667;28;20106;-89
2023/03/20 00:18:30;;;;;;;1.98;1.15;;;7.60;99.90;;;;;;5056656;28;20556;-90
2023/03/20 00:21:13;;;;;;;;;;;;;;;;;;;;;
2023/03/20 00:24:07;;;;;;;;;;;;;;;;;;;;;
2023/03/20 00:26:39;;;;;;;1.73;0.95;;;7.40;99.90;;;;;;5042068;28;20060;-89
2023/03/20 00:29:23;;;;;;;2.17;1.00;;;8.00;99.90;;;;;;5047270;28;20084;-90
2023/03/20 00:31:57;;;;;;;1.77;1.00;;;6.80;99.90;;;;;;5047383;28;20083;-89
2023/03/20 00:34:49;;;;;;;3.95;1.38;;;7.80;99.90;;;;;;5062479;28;20044;-89
2023/03/20 00:37:20;;;;;;;3.20;1.10;;;7.40;99.90;;;;;;5065026;28;20150;-90
2023/03/20 00:40:34;;;;;;;;;;;;;;;;;;;;;
2023/03/20 00:43:17;;;;;;;2.22;0.90;;;7.40;99.90;;;;;;5056100;28;20109;-89
2023/03/20 00:45:56;;;;;;;3.28;1.10;;;7.40;99.90;;;;;;5094336;28;20047;-89
2023/03/20 00:48:37;;;;;;;;;;;;;;;;;;;;;
2023/03/20 00:51:14;;;;;;;4.20;1.75;;;7.30;99.90;;;;;;5091203;28;20447;-90
2023/03/20 00:53:39;;;;;;;2.72;1.20;;;7.30;99.90;;;;;;5076767;28;20036;-89
2023/03/20 00:56:28;;;;;;;5.18;1.50;;;8.40;99.90;;;;;;5093257;28;20040;-88
2023/03/20 00:58:58;;;;;;;5.78;1.30;;;7.40;99.90;;;;;;5092779;28;20044;-88
2023/03/20 01:01:29;;;;;;;2.83;1.20;;;7.30;99.90;;;;;;5095084;28;20039;-89
2023/03/20 01:03:55;;;;;;;2.20;1.38;;;7.30;99.90;;;;;;5093754;28;20112;-89
2023/03/20 01:06:24;;;;;;;2.00;1.00;;;7.30;99.90;;;;;;5060101;28;20044;-88
2023/03/20 01:08:54;;;;;;;4.55;1.00;;;7.30;99.90;;;;;;5094091;28;20130;-88
2023/03/20 01:11:25;;;;;;;2.13;1.02;;;8.20;99.90;;;;;;5093145;28;20032;-89
2023/03/20 01:13:51;;;;;;;1.67;0.90;;;7.60;99.90;;;;;;5093862;28;20044;-89
2023/03/20 01:16:26;;;;;;;2.58;1.13;;;7.40;99.90;;;;;;5092947;28;20478;-89
2023/03/20 01:19:02;;;;;;;;;;;;;;;;;;;;;
2023/03/20 01:21:31;;;;;;;1.25;0.80;;;7.20;99.90;;;;;;5085742;28;20047;-89
2023/03/20 01:23:57;;;;;;;5.07;2.85;;;7.30;99.90;;;;;;5093822;28;20040;-89
2023/03/20 01:26:52;;;;;;;;;;;;;;;;;;;;;
2023/03/20 01:29:23;;;;;;;2.22;0.90;;;8.30;99.90;;;;;;5093100;28;20063;-89
2023/03/20 01:31:50;;;;;;;4.18;1.23;;;6.60;99.90;;;;;;5093776;28;20048;-89
2023/03/20 01:34:16;;;;;;;2.75;1.20;;;7.60;99.90;;;;;;5092922;28;20047;-88
2023/03/20 01:36:49;;;;;;;3.30;1.45;;;7.20;99.90;;;;;;5094079;28;20059;-89
2023/03/20 01:39:23;;;;;;;2.40;1.40;;;8.50;99.90;;;;;;5093107;28;20446;-89
2023/03/20 01:41:51;;;;;;;3.10;1.30;;;7.30;99.90;;;;;;5092676;28;20062;-89
2023/03/20 01:44:21;;;;;;;3.63;0.90;;;7.20;99.90;;;;;;5075436;28;20176;-89
2023/03/20 01:46:48;;;;;;;1.27;0.60;;;7.20;99.90;;;;;;5092678;28;20040;-89
2023/03/20 01:49:20;;;;;;;3.53;1.20;;;7.10;99.90;;;;;;5092915;28;20043;-90
2023/03/20 01:51:48;;;;;;;2.35;1.02;;;7.50;99.90;;;;;;5093145;28;20044;-89
2023/03/20 01:54:18;;;;;;;1.67;0.90;;;7.20;99.90;;;;;;5092576;28;20084;-88
2023/03/20 01:56:59;;;;;;;1.38;0.80;;;8.30;99.90;;;;;;5091778;28;20048;-88
2023/03/20 01:59:32;;;;;;;2.78;1.00;;;7.10;99.90;;;;;;5112406;28;20051;-88
2023/03/20 02:01:59;;;;;;;4.15;1.45;;;7.20;99.90;;;;;;5114022;28;20054;-89
2023/03/20 02:04:34;;;;;;;3.70;1.08;;;7.30;99.90;;;;;;5113829;28;20039;-90
2023/03/20 02:07:03;;;;;;;3.30;1.48;;;7.10;99.90;;;;;;5092742;28;20189;-89
2023/03/20 02:09:29;;;;;;;4.05;1.30;;;7.20;99.90;;;;;;5113164;28;20114;-90
2023/03/20 02:11:56;;;;;;;1.50;0.98;;;7.10;99.90;;;;;;5095705;28;20131;-90
2023/03/20 02:14:22;;;;;;;3.50;1.30;;;7.10;99.90;;;;;;5113522;28;20047;-90
2023/03/20 02:16:48;;;;;;;2.38;1.15;;;8.20;99.90;;;;;;5095722;28;20321;-90
2023/03/20 02:19:29;;;;;;;4.53;0.95;;;7.20;99.90;;;;;;5095440;28;20117;-89
2023/03/20 02:22:01;;;;;;;3.28;1.42;;;7.10;99.90;;;;;;5113667;28;20169;-89
2023/03/20 02:24:56;;;;;;;4.47;1.35;;;7.10;99.90;;;;;;5093476;28;20040;-90
2023/03/20 02:27:54;;;;;;;3.55;1.92;;;7.10;99.90;;;;;;5095097;28;20047;-89
2023/03/20 02:31:02;;;;;;;6.93;2.05;;;6.40;99.90;;;;;;5010410;28;20097;-89
2023/03/20 02:33:40;;;;;;;7.03;2.00;;;7.10;99.90;;;;;;4978341;28;20058;-89
2023/03/20 02:36:30;;;;;;;7.18;2.10;;;7.20;99.90;;;;;;4994901;28;20053;-88
2023/03/20 02:39:30;;;;;;;3.67;2.40;;;6.80;99.90;;;;;;4994618;28;20093;-89
2023/03/20 02:42:28;;;;;;;5.72;2.00;;;7.20;99.90;;;;;;4994277;28;20054;-88
2023/03/20 02:45:23;;;;;;;6.63;2.60;;;7.20;99.90;;;;;;4911699;29;20052;-88
2023/03/20 02:48:11;;;;;;;5.07;2.35;;;7.20;99.90;;;;;;4917547;29;20475;-88
2023/03/20 02:50:47;;;;;;;3.80;1.77;;;7.20;99.90;;;;;;4917480;29;20051;-88
2023/03/20 02:53:28;;;;;;;5.25;2.15;;;7.20;99.90;;;;;;4903478;29;20062;-88
2023/03/20 02:56:37;;;;;;;5.40;2.65;;;7.20;99.90;;;;;;4910099;29;20090;-89
2023/03/20 02:59:09;;;;;;;9.00;2.30;;;7.30;99.90;;;;;;4886196;29;20053;-88
2023/03/20 03:01:44;;;;;;;5.88;2.15;;;7.20;99.90;;;;;;4885630;29;20131;-90
2023/03/20 03:04:21;;;;;;;3.45;1.48;;;7.30;99.90;;;;;;4894592;29;20068;-87
2023/03/20 03:06:50;;;;;;;5.82;2.25;;;8.30;99.90;;;;;;4900126;28;20088;-88
2023/03/20 03:09:28;;;;;;;6.20;2.50;;;7.80;99.90;;;;;;4953080;28;20051;-88
2023/03/20 03:12:00;;;;;;;5.43;2.40;;;7.30;99.90;;;;;;4944818;28;20082;-88
2023/03/20 03:14:41;;;;;;;8.20;2.88;;;7.30;99.90;;;;;;4952873;28;20067;-87
2023/03/20 03:17:09;;;;;;;6.07;2.70;;;8.30;99.90;;;;;;4950042;28;20056;-89
2023/03/20 03:19:37;;;;;;;6.47;2.17;;;7.30;99.90;;;;;;4949673;28;20115;-87
2023/03/20 03:22:04;;;;;;;5.93;2.65;;;7.30;99.90;;;;;;4984906;28;20042;-88
2023/03/20 03:24:35;;;;;;;4.72;2.60;;;8.20;99.90;;;;;;5006706;28;20049;-88
2023/03/20 03:27:07;;;;;;;6.00;2.42;;;7.30;99.90;;;;;;4995900;28;20088;-88
2023/03/20 03:29:35;;;;;;;3.85;1.70;;;7.30;99.90;;;;;;4978782;28;20069;-88
2023/03/20 03:32:07;;;;;;;9.15;2.97;;;7.30;99.90;;;;;;5001843;28;20045;-88
2023/03/20 03:34:34;;;;;;;6.05;2.72;;;7.30;99.90;;;;;;5009872;28;20443;-88
2023/03/20 03:37:20;;;;;;;8.90;2.88;;;7.60;99.90;;;;;;5097778;28;20388;-89
2023/03/20 03:39:56;;;;;;;4.97;2.60;;;8.20;99.90;;;;;;5092762;28;20115;-88
2023/03/20 03:42:34;;;;;;;6.28;2.90;;;7.80;99.90;;;;;;5091982;28;20039;-88
2023/03/20 03:45:16;;;;;;;6.68;2.85;;;7.40;99.90;;;;;;5112497;28;20043;-88
2023/03/20 03:48:00;;;;;;;6.43;3.38;;;7.60;99.90;;;;;;5091168;28;20044;-88
2023/03/20 03:50:26;;;;;;;7.50;2.58;;;7.30;99.90;;;;;;5112757;28;20042;-88
2023/03/20 03:52:56;;;;;;;6.50;2.55;;;8.00;99.90;;;;;;5094496;28;20040;-88
2023/03/20 03:55:26;;;;;;;6.28;2.80;;;7.40;99.90;;;;;;5112051;28;20048;-88
2023/03/20 03:58:22;;;;;;;5.30;2.80;;;8.20;99.90;;;;;;5111940;28;20051;-88
2023/03/20 04:00:51;;;;;;;5.45;2.55;;;7.40;99.90;;;;;;5088698;28;20051;-88
2023/03/20 04:03:19;;;;;;;5.35;2.17;;;8.40;99.90;;;;;;5094096;28;20472;-88
2023/03/20 04:05:46;;;;;;;7.95;2.45;;;7.40;99.90;;;;;;5093806;28;20404;-88
2023/03/20 04:08:15;;;;;;;5.40;2.42;;;8.00;99.90;;;;;;5112156;28;20046;-88
2023/03/20 04:10:41;;;;;;;6.40;3.13;;;7.90;99.90;;;;;;5095018;28;20031;-89
2023/03/20 04:13:06;;;;;;;5.30;2.97;;;8.20;99.90;;;;;;5093973;28;20100;-89
2023/03/20 04:15:32;;;;;;;7.47;3.03;;;6.80;99.90;;;;;;5094170;28;20392;-89
2023/03/20 04:17:58;;;;;;;6.32;2.85;;;7.40;99.90;;;;;;5111794;28;20044;-88
2023/03/20 04:20:24;;;;;;;6.65;2.70;;;8.70;99.90;;;;;;5115652;28;20040;-89
2023/03/20 04:22:49;;;;;;;10.38;3.72;;;8.00;99.90;;;;;;5097484;28;20048;-88
2023/03/20 04:25:21;;;;;;;8.73;3.33;;;8.60;99.90;;;;;;5090111;28;20082;-88
2023/03/20 04:27:50;;;;;;;8.85;3.30;;;7.40;99.90;;;;;;5097496;28;20035;-88
2023/03/20 04:30:16;;;;;;;7.07;3.10;;;8.80;99.90;;;;;;5097163;28;20039;-88
2023/03/20 04:32:41;;;;;;;11.85;3.65;;;7.40;99.90;;;;;;5094615;28;20480;-88
2023/03/20 04:35:08;;;;;;;9.05;2.83;;;7.50;99.90;;;;;;5079799;28;20050;-88
2023/03/20 04:37:34;;;;;;;6.32;2.75;;;7.40;99.90;;;;;;5115823;28;20118;-89
2023/03/20 04:40:00;;;;;;;5.95;2.90;;;8.40;99.90;;;;;;5097442;28;20067;-87
2023/03/20 04:42:25;;;;;;;5.15;2.72;;;7.90;99.90;;;;;;5116074;28;20035;-88
2023/03/20 04:44:51;;;;;;;6.63;2.25;;;8.00;99.90;;;;;;5115525;28;20426;-89
2023/03/20 04:47:19;;;;;;;7.38;3.05;;;8.20;99.90;;;;;;5097352;28;20064;-90
2023/03/20 04:49:45;;;;;;;6.70;2.60;;;8.00;99.90;;;;;;5080946;28;20388;-89
2023/03/20 04:52:11;;;;;;;7.40;2.50;;;8.00;99.90;;;;;;5115223;28;20039;-90
2023/03/20 04:54:36;;;;;;;5.07;2.45;;;8.80;99.90;;;;;;5097615;28;20176;-90
2023/03/20 04:57:07;;;;;;;6.18;2.63;;;8.70;99.90;;;;;;5096992;28;20035;-90
2023/03/20 04:59:33;;;;;;;5.68;3.15;;;8.30;99.90;;;;;;5088881;28;20054;-91
2023/03/20 05:01:59;;;;;;;8.70;3.45;;;7.50;99.90;;;;;;5097539;28;20491;-90
2023/03/20 05:04:25;;;;;;;9.15;3.97;;;8.50;99.90;;;;;;5115290;28;20042;-90
2023/03/20 05:06:54;;;;;;;7.32;3.10;;;8.80;99.90;;;;;;5095947;28;20524;-90
2023/03/20 05:09:19;;;;;;;5.80;3.03;;;7.50;99.90;;;;;;5096992;28;20430;-90
2023/03/20 05:11:45;;;;;;;9.95;3.40;;;7.50;99.90;;;;;;5071818;28;20036;-90
2023/03/20 05:14:13;;;;;;;6.25;2.80;;;7.50;99.90;;;;;;5096883;28;20062;-90
2023/03/20 05:16:39;;;;;;;7.50;3.15;;;7.90;99.90;;;;;;5096144;28;20146;-90
2023/03/20 05:19:05;;;;;;;8.75;4.05;;;8.00;99.90;;;;;;5093774;28;20527;-88
2023/03/20 05:21:31;;;;;;;8.25;3.25;;;7.50;99.90;;;;;;5093959;28;20071;-90
2023/03/20 05:23:57;;;;;;;10.68;5.32;;;7.40;99.90;;;;;;5079747;28;20035;-89
2023/03/20 05:26:25;;;;;;;7.72;3.47;;;7.40;99.90;;;;;;5114247;28;20043;-89
2023/03/20 05:28:51;;;;;;;7.47;3.03;;;7.40;99.90;;;;;;5096256;28;20373;-90
2023/03/20 05:31:16;;;;;;;8.60;3.55;;;7.80;99.90;;;;;;5114325;28;20072;-90
2023/03/20 05:33:45;;;;;;;11.20;4.25;;;7.50;99.90;;;;;;5115106;28;20100;-90
2023/03/20 05:36:10;;;;;;;4.78;2.38;;;7.50;99.90;;;;;;5106537;28;20047;-90
2023/03/20 05:38:36;;;;;;;10.90;3.78;;;7.50;99.90;;;;;;5092875;28;20039;-90
2023/03/20 05:41:02;;;;;;;7.63;3.35;;;8.60;99.90;;;;;;5110590;28;20404;-90
2023/03/20 05:43:28;;;;;;;9.30;3.60;;;7.50;99.90;;;;;;5096301;28;20040;-90
2023/03/20 05:45:55;;;;;;;6.85;3.00;;;7.50;99.90;;;;;;5096261;28;20040;-89
2023/03/20 05:48:21;;;;;;;6.15;3.08;;;8.60;99.90;;;;;;5087692;28;20077;-90
2023/03/20 05:50:47;;;;;;;10.00;3.97;;;8.10;99.90;;;;;;5096138;28;20540;-89
2023/03/20 05:53:13;;;;;;;10.43;4.18;;;8.30;99.90;;;;;;5113701;28;20044;-89
2023/03/20 05:55:40;;;;;;;10.20;3.85;;;8.10;99.90;;;;;;5096116;28;20156;-89
2023/03/20 05:58:06;;;;;;;9.70;4.35;;;7.60;99.90;;;;;;5092142;28;20066;-88
2023/03/20 06:00:32;;;;;;;11.07;4.13;;;8.30;99.90;;;;;;5095329;28;20047;-89
2023/03/20 06:02:58;;;;;;;10.85;4.03;;;7.90;99.90;;;;;;5095602;28;20047;-89
2023/03/20 06:05:24;;;;;;;11.60;4.10;;;7.60;99.90;;;;;;5078938;28;20047;-90
2023/03/20 06:07:50;;;;;;;9.32;4.82;;;7.60;99.90;;;;;;5114379;28;20408;-89
2023/03/20 06:10:16;;;;;;;10.10;4.55;;;7.60;99.90;;;;;;5095933;28;20040;-90
2023/03/20 06:12:50;;;;;;;6.43;3.53;;;7.50;99.90;;;;;;5095557;28;20101;-90
2023/03/20 06:15:16;;;;;;;8.53;3.60;;;7.60;99.90;;;;;;5095881;28;20047;-89
2023/03/20 06:17:42;;;;;;;12.48;4.82;;;7.90;99.90;;;;;;5095726;28;20362;-91
2023/03/20 06:20:08;;;;;;;9.70;3.17;;;7.70;99.90;;;;;;5095495;28;20040;-91
2023/03/20 06:22:37;;;;;;;9.68;4.22;;;7.60;99.90;;;;;;5113898;28;20040;-89
2023/03/20 06:25:03;;;;;;;11.52;5.20;;;7.50;99.90;;;;;;5078761;28;20494;-88
2023/03/20 06:27:30;;;;;;;6.55;3.15;;;7.60;99.90;;;;;;5113757;28;20412;-91
2023/03/20 06:29:56;;;;;;;10.45;4.47;;;7.70;99.90;;;;;;5095212;28;20054;-90
2023/03/20 06:32:29;;;;;;;13.43;4.55;;;8.00;99.90;;;;;;5095808;28;20070;-89
2023/03/20 06:34:55;;;;;;;8.82;4.10;;;7.60;99.90;;;;;;5095489;28;20069;-92
2023/03/20 06:37:20;;;;;;;9.35;4.15;;;7.60;99.90;;;;;;5095434;28;20047;-90
2023/03/20 06:39:46;;;;;;;9.52;4.68;;;7.80;99.90;;;;;;5094977;28;20039;-91
2023/03/20 06:42:15;;;;;;;11.77;4.03;;;7.70;99.90;;;;;;5094535;28;20047;-89
2023/03/20 06:44:42;;;;;;;10.60;4.15;;;7.60;99.90;;;;;;5113254;28;20078;-89
2023/03/20 06:47:07;;;;;;;8.20;3.75;;;8.80;99.90;;;;;;5094878;28;20043;-89
2023/03/20 06:49:33;;;;;;;9.13;3.83;;;7.70;99.90;;;;;;5113704;28;20091;-89
2023/03/20 06:51:59;;;;;;;11.30;4.22;;;7.70;99.90;;;;;;5095515;28;20466;-90
2023/03/20 06:54:28;;;;;;;8.13;4.07;;;7.70;99.90;;;;;;5087080;28;20106;-91
2023/03/20 06:56:54;;;;;;;5.30;3.10;;;7.70;99.90;;;;;;5078827;28;20052;-90
2023/03/20 06:59:19;;;;;;;8.23;3.50;;;8.00;99.90;;;;;;5112711;28;20062;-89
2023/03/20 07:01:45;;;;;;;8.10;3.88;;;8.80;99.90;;;;;;5095428;28;20090;-90
2023/03/20 07:04:11;;;;;;;8.80;3.97;;;7.90;99.90;;;;;;5095009;28;20036;-89
2023/03/20 07:06:37;;;;;;;11.85;5.07;;;7.70;99.90;;;;;;5077797;28;20044;-89
2023/03/20 07:09:05;;;;;;;8.25;4.05;;;8.30;99.90;;;;;;5095785;28;20381;-89
2023/03/20 07:11:33;;;;;;;9.23;3.80;;;8.20;99.90;;;;;;5094882;28;20433;-90
2023/03/20 07:14:00;;;;;;;12.38;4.43;;;7.90;99.90;;;;;;5094594;28;20457;-89
2023/03/20 07:16:26;;;;;;;9.93;4.75;;;7.90;99.90;;;;;;5094521;28;20047;-88
2023/03/20 07:18:52;;;;;;;12.30;5.25;;;7.90;99.90;;;;;;5112892;28;20076;-89
2023/03/20 07:21:28;;;;;;;7.38;3.83;;;8.70;99.90;;;;;;5113368;28;20054;-90
2023/03/20 07:23:54;;;;;;;8.23;4.32;;;8.30;99.90;;;;;;5096950;28;20051;-89
2023/03/20 07:26:20;;;;;;;8.68;3.70;;;8.60;99.90;;;;;;5077906;28;20035;-87
2023/03/20 07:28:45;;;;;;;9.38;4.00;;;8.70;99.90;;;;;;5092849;28;20049;-86
2023/03/20 07:31:23;;;;;;;9.00;4.07;;;8.20;99.90;;;;;;5094168;28;20069;-85
2023/03/20 07:33:49;;;;;;;8.70;4.43;;;8.60;99.90;;;;;;5092362;28;20048;-86
2023/03/20 07:36:15;;;;;;;10.13;4.43;;;9.00;99.90;;;;;;5094663;28;20042;-86
2023/03/20 07:38:41;;;;;;;9.90;4.20;;;8.30;99.90;;;;;;5112257;28;20040;-86
2023/03/20 07:41:06;;;;;;;10.57;4.65;;;8.40;99.90;;;;;;5094126;28;20043;-87
2023/03/20 07:43:33;;;;;;;10.05;4.50;;;9.40;99.90;;;;;;5112784;28;20044;-85
2023/03/20 07:46:02;;;;;;;9.00;4.15;;;8.90;99.90;;;;;;5094029;28;20057;-86
2023/03/20 07:48:28;;;;;;;12.15;3.85;;;8.50;99.90;;;;;;5112510;28;20024;-85
2023/03/20 07:50:53;;;;;;;11.73;4.53;;;8.60;99.90;;;;;;5090499;28;20101;-86
2023/03/20 07:53:19;;;;;;;10.10;4.85;;;9.00;99.90;;;;;;5093500;28;20065;-85
2023/03/20 07:55:45;;;;;;;8.75;4.47;;;8.60;99.90;;;;;;5116141;28;20044;-86
2023/03/20 07:58:11;;;;;;;8.57;3.97;;;8.60;99.90;;;;;;5115772;28;20051;-86
2023/03/20 08:00:36;;;;;;;13.38;5.00;;;8.90;99.90;;;;;;5116260;28;20093;-86
2023/03/20 08:03:02;;;;;;;10.18;4.25;;;9.10;99.90;;;;;;5116546;28;20399;-85
2023/03/20 08:05:28;;;;;;;10.95;4.65;;;8.80;99.90;;;;;;5115820;28;20055;-86
2023/03/20 08:07:54;;;;;;;10.48;4.63;;;9.20;99.90;;;;;;5116471;28;20044;-86
2023/03/20 08:10:20;;;;;;;8.80;4.63;;;9.60;99.90;;;;;;5115789;28;20176;-86
2023/03/20 08:12:46;;;;;;;8.77;4.47;;;8.80;99.90;;;;;;5097803;28;20055;-85
2023/03/20 08:15:12;;;;;;;13.45;4.63;;;9.00;99.90;;;;;;5116539;28;20031;-85
2023/03/20 08:17:40;;;;;;;12.88;4.93;;;8.90;99.90;;;;;;5116088;28;20054;-86
2023/03/20 08:20:06;;;;;;;13.27;5.72;;;8.90;99.90;;;;;;5116094;28;20092;-85
2023/03/20 08:22:32;;;;;;;12.77;5.72;;;8.90;99.90;;;;;;5097373;28;20040;-86
2023/03/20 08:24:58;;;;;;;10.30;4.75;;;8.90;99.90;;;;;;5115701;28;20260;-87
2023/03/20 08:27:23;;;;;;;11.90;5.35;;;9.90;99.90;;;;;;5098150;28;20050;-87
2023/03/20 08:29:49;;;;;;;8.55;4.47;;;8.90;99.90;;;;;;5094643;28;20039;-88
2023/03/20 08:32:15;;;;;;;10.82;5.18;;;9.00;99.90;;;;;;5096390;28;20078;-87
2023/03/20 08:34:41;;;;;;;9.48;5.00;;;8.80;99.90;;;;;;5078422;28;20043;-87
2023/03/20 08:37:07;;;;;;;11.63;4.80;;;8.90;99.90;;;;;;5096426;28;20050;-88
2023/03/20 08:39:32;;;;;;;12.65;5.47;;;9.60;99.90;;;;;;5078184;28;20093;-90
2023/03/20 08:42:10;;;;;;;9.48;4.43;;;8.90;99.90;;;;;;5078568;28;20062;-93
2023/03/20 08:44:51;;;;;;;;;;;;;;;;;;;;;
2023/03/20 08:47:35;;;;;;;9.30;4.50;;;8.90;99.90;;;;;;5039011;28;20135;-90
2023/03/20 08:50:14;;;;;;;;;;;;;;;;;;;;;
2023/03/20 08:57:53;;;;;;;10.48;5.22;;;9.30;99.90;;;;;;5025996;28;20045;-91
2023/03/20 09:01:05;;;;;;;;;;;;;;;;;;;;;
2023/03/20 09:07:11;;;;;;;12.13;4.53;;;9.70;99.90;;;;;;4735007;30;20055;-90
2023/03/20 09:09:46;;;;;;;10.75;5.03;;;9.40;99.90;;;;;;4721478;30;20122;-92
2023/03/20 09:12:32;;;;;;;11.93;5.67;;;9.50;99.90;;;;;;4735030;30;20060;-91
2023/03/20 10:06:23;;;;;;;12.63;5.97;;;10.60;99.90;;;;;;5373345;24;20282;-91
2023/03/20 10:08:59;;;;;;;;;;;;;;;;;;;;;
2023/03/20 10:16:27;;;;;;;8.55;4.32;;;10.80;99.90;;;;;;4863050;29;20102;-92
2023/03/20 10:33:34;;;;;;;10.40;3.95;;;11.10;99.90;;;;;;3109353;23;20342;-86
2023/03/20 10:36:52;;;;;;;10.88;4.25;;;11.20;99.90;;;;;;4856929;29;20049;-90
2023/03/20 11:03:46;;;;;;;8.45;4.25;;;11.50;99.90;;;;;;5309946;23;20124;-88
2023/03/20 11:06:33;;;;;;;12.40;5.72;;;11.60;99.90;;;;;;4848394;29;20144;-91
2023/03/20 11:09:11;;;;;;;7.72;4.40;;;11.60;99.90;;;;;;4854397;29;20052;-86
2023/03/20 11:15:16;;;;;;;7.90;4.30;;;11.50;99.90;;;;;;4853976;23;20085;-91
2023/03/20 11:17:41;;;;;;;9.23;4.10;;;11.70;99.90;;;;;;4734487;30;20595;-90
2023/03/20 11:20:09;;;;;;;5.88;3.38;;;11.20;99.90;;;;;;4752245;30;20091;-90
2023/03/20 11:23:34;;;;;;;;;;;;;;;;;;;;;
2023/03/20 11:26:06;;;;;;;7.47;3.92;;;11.40;99.90;;;;;;4732725;30;20060;-89
2023/03/20 11:29:12;;;;;;;6.40;3.05;;;11.10;99.90;;;;;;4732789;30;20052;-85
2023/03/20 11:31:44;;;;;;;8.83;3.53;;;11.30;99.90;;;;;;4734240;30;20137;-91
2023/03/20 11:34:18;;;;;;;8.65;3.42;;;11.30;99.90;;;;;;4738417;30;20302;-90
2023/03/20 11:36:55;;;;;;;6.75;4.03;;;11.40;99.90;;;;;;4737778;30;20044;-91
2023/03/20 11:39:36;;;;;;;7.63;3.75;;;11.40;99.90;;;;;;4739058;30;20565;-86
2023/03/20 11:42:02;;;;;;;6.10;3.28;;;11.30;99.90;;;;;;4753429;30;20072;-88
2023/03/20 11:44:29;;;;;;;8.43;3.53;;;11.30;99.90;;;;;;4738676;30;20686;-89
2023/03/20 11:47:10;;;;;;;9.77;5.80;;;11.40;99.90;;;;;;4737052;30;20059;-89
2023/03/20 11:49:55;;;;;;;8.27;3.50;;;11.40;99.90;;;;;;4732592;30;20423;-91
2023/03/20 11:52:34;;;;;;;7.70;3.08;;;11.40;99.90;;;;;;4740090;30;20063;-90
2023/03/20 11:55:05;;;;;;;5.90;3.38;;;11.50;99.90;;;;;;4804245;29;20057;-90
2023/03/20 11:57:35;;;;;;;7.97;3.30;;;11.40;99.90;;;;;;4845374;29;20053;-88
2023/03/20 12:00:26;;;;;;;7.47;2.90;;;11.20;99.90;;;;;;4856082;29;20045;-89
2023/03/20 12:02:52;;;;;;;8.73;3.35;;;11.20;99.90;;;;;;4846288;29;20057;-90
2023/03/20 12:05:17;;;;;;;7.80;2.80;;;11.10;99.90;;;;;;4847167;29;20064;-85
2023/03/20 12:07:45;;;;;;;7.93;3.17;;;11.30;99.90;;;;;;4853676;29;20042;-89
2023/03/20 12:10:13;;;;;;;4.07;2.45;;;11.00;99.90;;;;;;4863302;29;20050;-90
2023/03/20 12:12:47;;;;;;;8.70;2.90;;;10.90;99.90;;;;;;4846137;29;20169;-89
2023/03/20 12:15:27;;;;;;;6.68;2.35;;;10.90;99.90;;;;;;4842942;29;20072;-90
2023/03/20 12:18:15;;;;;;;2.92;1.58;;;10.90;99.90;;;;;;4855870;29;20033;-86
2023/03/20 12:21:16;;;;;;;4.55;1.73;;;10.80;99.90;;;;;;4808911;29;20167;-89
2023/03/20 12:24:08;;;;;;;3.13;1.33;;;10.10;99.90;;;;;;4823994;29;20047;-90
2023/03/20 12:26:41;;;;;;;4.80;2.05;;;10.70;99.90;;;;;;4823727;29;20111;-87
2023/03/20 12:29:27;;;;;;;6.05;1.90;;;10.80;99.90;;;;;;4824858;29;20050;-87
2023/03/20 12:32:01;;;;;;;4.45;1.60;;;10.90;99.90;;;;;;4807885;29;20070;-89
2023/03/20 12:34:36;;;;;;;7.68;2.10;;;10.40;99.90;;;;;;4807753;29;20049;-88
2023/03/20 12:37:18;;;;;;;5.47;1.58;;;11.10;99.90;;;;;;4809282;29;20530;-90
2023/03/20 12:40:03;;;;;;;2.97;1.73;;;10.40;99.90;;;;;;4809855;29;20396;-89
2023/03/20 12:42:34;;;;;;;4.65;1.98;;;10.30;99.90;;;;;;4823797;29;20046;-88
2023/03/20 12:45:17;;;;;;;3.35;1.15;;;10.40;99.90;;;;;;4808791;29;20069;-88
2023/03/20 12:48:01;;;;;;;4.15;1.20;;;10.20;99.90;;;;;;4816358;29;20042;-88
2023/03/20 12:50:52;;;;;;;2.55;1.10;;;10.20;99.90;;;;;;4808878;29;20095;-89
2023/03/20 12:53:38;;;;;;;3.80;1.45;;;10.20;99.90;;;;;;4825319;29;20084;-90
2023/03/20 12:56:34;;;;;;;3.25;1.55;;;10.00;99.90;;;;;;4810586;29;20539;-89
2023/03/20 12:59:06;;;;;;;3.30;1.52;;;10.10;99.90;;;;;;4849602;29;20062;-88
2023/03/20 13:01:44;;;;;;;4.13;1.60;;;10.00;99.90;;;;;;4855756;29;20041;-89
2023/03/20 13:04:26;;;;;;;5.57;1.65;;;9.80;99.90;;;;;;4841458;29;20053;-88
2023/03/20 13:07:00;;;;;;;4.43;1.35;;;9.80;99.90;;;;;;4862632;29;20415;-89
2023/03/20 13:09:51;;;;;;;1.73;1.08;;;10.00;99.90;;;;;;4861337;29;20510;-88
2023/03/20 13:12:41;;;;;;;3.22;1.17;;;9.70;99.90;;;;;;4844895;29;20456;-89
2023/03/20 13:15:29;;;;;;;4.80;2.00;;;9.70;99.90;;;;;;4823556;29;20071;-91
2023/03/20 13:18:16;;;;;;;4.65;1.85;;;9.70;99.90;;;;;;4845895;29;20061;-89
2023/03/20 13:20:54;;;;;;;4.32;2.03;;;9.70;99.90;;;;;;4836101;29;20050;-89
2023/03/20 13:23:26;;;;;;;5.63;2.25;;;9.70;99.90;;;;;;4857604;29;20121;-89
2023/03/20 13:26:25;;;;;;;2.72;1.73;;;9.60;99.90;;;;;;4844997;29;20053;-87
2023/03/20 13:29:06;;;;;;;4.28;2.20;;;9.60;99.90;;;;;;4839833;29;20220;-88
2023/03/20 13:31:45;;;;;;;4.65;1.80;;;9.60;99.90;;;;;;4861063;29;20061;-89
2023/03/20 13:34:24;;;;;;;3.17;1.70;;;9.60;99.90;;;;;;4841526;29;20054;-89
2023/03/20 13:37:15;;;;;;;4.43;2.05;;;9.60;99.90;;;;;;4839418;29;20060;-89
2023/03/20 13:40:04;;;;;;;3.15;1.60;;;9.60;99.90;;;;;;4844173;29;20057;-91
2023/03/20 13:42:59;;;;;;;3.10;1.73;;;9.50;99.90;;;;;;4843539;29;20038;-90
2023/03/20 13:45:32;;;;;;;4.45;1.50;;;9.50;99.90;;;;;;4842668;29;20057;-90
2023/03/20 13:48:13;;;;;;;4.00;2.03;;;9.50;99.90;;;;;;4844274;29;20053;-91
2023/03/20 13:50:50;;;;;;;4.80;1.60;;;9.40;99.90;;;;;;4853030;29;20382;-91
2023/03/20 13:53:44;;;;;;;4.20;1.63;;;9.30;99.90;;;;;;4840763;29;20060;-90
2023/03/20 13:56:44;;;;;;;2.42;1.63;;;9.40;99.90;;;;;;4841856;29;20058;-89
2023/03/20 13:59:38;;;;;;;3.55;1.42;;;9.40;99.90;;;;;;4857778;29;20049;-89
2023/03/20 14:02:34;;;;;;;2.97;1.30;;;9.30;99.90;;;;;;4836476;29;20058;-90
2023/03/20 14:05:34;;;;;;;3.38;1.98;;;9.30;99.90;;;;;;4784431;29;20432;-90
2023/03/20 14:08:35;;;;;;;4.72;1.90;;;9.30;99.90;;;;;;4759106;30;20056;-90
2023/03/20 14:11:09;;;;;;;5.82;2.00;;;9.30;99.90;;;;;;4768299;30;20058;-90
2023/03/20 14:13:38;;;;;;;3.50;1.95;;;9.30;99.90;;;;;;4761037;30;20063;-90
2023/03/20 14:16:11;;;;;;;2.45;1.48;;;9.20;99.90;;;;;;4763536;30;20095;-89
2023/03/20 14:18:37;;;;;;;3.33;2.05;;;9.20;99.90;;;;;;4776309;30;20063;-89
2023/03/20 14:21:29;;;;;;;2.85;1.90;;;9.20;99.90;;;;;;4775517;30;20569;-88
2023/03/20 14:24:06;;;;;;;4.22;1.95;;;9.20;99.90;;;;;;4717824;30;20056;-89
2023/03/20 14:26:41;;;;;;;3.03;1.98;;;9.10;99.90;;;;;;4716364;30;20048;-89
2023/03/20 14:29:10;;;;;;;5.25;1.70;;;9.10;99.90;;;;;;4730287;30;20131;-86
2023/03/20 14:31:37;;;;;;;2.67;1.40;;;9.10;99.90;;;;;;4717097;30;20444;-88
2023/03/20 14:34:11;;;;;;;2.33;1.55;;;9.00;99.90;;;;;;4717349;30;20557;-88
2023/03/20 14:37:02;;;;;;;3.85;1.75;;;9.10;99.90;;;;;;4716652;30;20056;-89
2023/03/20 14:39:33;;;;;;;3.00;2.20;;;9.10;99.90;;;;;;4729114;30;20626;-88
2023/03/20 14:42:37;;;;;;;4.15;1.95;;;9.10;99.90;;;;;;4727067;30;20059;-89
2023/03/20 14:45:23;;;;;;;2.67;1.88;;;8.80;99.90;;;;;;4746678;30;20056;-88
2023/03/20 14:48:15;;;;;;;3.33;2.17;;;9.00;99.90;;;;;;4752064;30;20062;-89
2023/03/20 14:50:47;;;;;;;3.70;1.73;;;9.00;99.90;;;;;;4752463;30;20124;-89
2023/03/20 14:53:18;;;;;;;4.07;2.20;;;8.90;99.90;;;;;;4752937;29;20056;-89
2023/03/20 14:55:58;;;;;;;2.95;1.60;;;8.90;99.90;;;;;;4751721;30;20059;-88
2023/03/20 14:58:33;;;;;;;3.28;2.10;;;8.80;99.90;;;;;;4762263;30;20039;-86
2023/03/20 15:01:04;;;;;;;3.80;2.28;;;9.20;99.90;;;;;;4805017;29;20065;-90
2023/03/20 15:03:31;;;;;;;3.30;2.10;;;8.80;99.90;;;;;;4855880;29;20052;-89
2023/03/20 15:05:59;;;;;;;4.22;2.08;;;9.40;99.90;;;;;;4834319;29;20133;-91
2023/03/20 15:08:30;;;;;;;2.45;1.50;;;8.90;99.90;;;;;;4854736;29;20038;-91
2023/03/20 15:11:02;;;;;;;3.78;2.17;;;8.80;99.90;;;;;;4843380;29;20113;-86
2023/03/20 15:13:29;;;;;;;3.35;1.90;;;8.50;99.90;;;;;;4859905;29;20068;-87
2023/03/20 15:16:06;;;;;;;2.75;1.58;;;8.80;99.90;;;;;;4843362;29;20117;-89
2023/03/20 15:18:49;;;;;;;4.18;1.85;;;8.80;99.90;;;;;;4857263;29;20053;-88
2023/03/20 15:21:18;;;;;;;3.53;1.60;;;9.00;99.90;;;;;;4839402;29;20056;-91
2023/03/20 15:23:45;;;;;;;4.53;3.03;;;9.20;99.90;;;;;;4854103;29;20050;-89
2023/03/20 15:26:14;;;;;;;3.40;2.03;;;8.80;99.90;;;;;;4856475;29;20052;-90
2023/03/20 15:28:41;;;;;;;4.72;2.63;;;8.80;99.90;;;;;;4849077;29;20085;-89
2023/03/20 15:31:23;;;;;;;3.95;2.75;;;8.80;99.90;;;;;;4860274;29;20077;-91
2023/03/20 15:33:49;;;;;;;5.05;3.03;;;8.80;99.90;;;;;;4843378;29;20049;-91
2023/03/20 15:36:18;;;;;;;6.68;2.55;;;8.80;99.90;;;;;;4860061;29;20042;-91